Time;durP1;ratioP1;P1;durP2;ratioP2;P2;SDS_P1;SDS_P2;PMS_P1;PMS_P2;Temp;Humidity;BMP_temperature;BMP_pressure;BME280_temperature;BME280_humidity;BME280_pressure;Samples;Min_cycle;Max_cycle;Signal;HPM_P1;HPM_P2
2022/09/11 00:01:35;;;;;;;44.97;31.67;;;;;;;16.42;95.64;101567.97;4991896;28;20669;-74
2022/09/11 00:04:01;;;;;;;45.77;32.77;;;;;;;16.43;95.48;101567.13;5000161;28;20583;-75
2022/09/11 00:06:27;;;;;;;46.63;33.13;;;;;;;16.42;96.05;101564.50;4987055;28;20211;-75
2022/09/11 00:09:01;;;;;;;48.43;34.23;;;;;;;16.40;96.68;101572.25;4991134;28;20210;-75
2022/09/11 00:11:47;;;;;;;46.87;35.10;;;;;;;16.42;96.67;101574.84;4990044;28;20286;-75
2022/09/11 00:14:13;;;;;;;48.73;34.83;;;;;;;16.42;96.58;101577.44;4988973;28;20211;-75
2022/09/11 00:16:43;;;;;;;52.20;36.70;;;;;;;16.42;96.39;101573.16;4984059;28;20192;-75
2022/09/11 00:19:17;;;;;;;50.07;36.37;;;;;;;16.45;96.89;101577.47;4988942;28;20213;-75
2022/09/11 00:21:44;;;;;;;48.47;34.37;;;;;;;16.43;96.84;101577.47;4988076;28;20849;-75
2022/09/11 00:24:10;;;;;;;44.83;34.73;;;;;;;16.44;96.71;101576.59;4991237;28;20673;-75
2022/09/11 00:26:36;;;;;;;49.00;35.77;;;;;;;16.43;96.85;101574.00;4983512;28;20565;-75
2022/09/11 00:29:03;;;;;;;45.80;34.43;;;;;;;16.43;96.94;101577.47;4991277;28;20200;-76
2022/09/11 00:31:29;;;;;;;50.27;36.37;;;;;;;16.47;96.99;101578.34;4995832;28;20221;-75
2022/09/11 00:33:55;;;;;;;51.37;35.77;;;;;;;16.48;96.90;101573.19;4988981;28;20211;-76
2022/09/11 00:36:30;;;;;;;54.97;37.07;;;;;;;16.46;97.32;101571.44;4989822;28;20203;-76
2022/09/11 00:38:56;;;;;;;56.60;37.37;;;;;;;16.43;97.13;101574.00;5002258;28;20207;-75
2022/09/11 00:41:36;;;;;;;50.70;36.40;;;;;;;16.42;97.26;101578.31;4989660;28;20184;-75
2022/09/11 00:44:04;;;;;;;56.33;37.83;;;;;;;16.40;97.14;101574.00;4982696;28;20203;-77
2022/09/11 00:46:30;;;;;;;52.83;37.53;;;;;;;16.38;97.26;101567.88;4989505;28;20216;-76
2022/09/11 00:48:57;;;;;;;56.00;38.60;;;;;;;16.37;97.68;101574.81;4989546;28;20251;-76
2022/09/11 00:51:27;;;;;;;53.47;36.90;;;;;;;16.35;97.54;101571.31;4989019;28;20219;-76
2022/09/11 00:53:56;;;;;;;54.03;36.77;;;;;;;16.37;97.61;101574.81;4987561;28;20207;-76
2022/09/11 00:56:25;;;;;;;47.80;34.53;;;;;;;16.34;97.44;101572.19;4985814;28;20184;-76
2022/09/11 00:58:53;;;;;;;53.80;37.23;;;;;;;16.32;97.61;101573.91;4986791;28;20211;-76
2022/09/11 01:01:19;;;;;;;50.80;36.27;;;;;;;16.34;97.34;101579.94;4984067;28;20195;-76
2022/09/11 01:03:45;;;;;;;53.57;35.43;;;;;;;16.34;97.70;101584.25;4982205;28;20681;-76
2022/09/11 01:06:11;;;;;;;51.43;34.60;;;;;;;16.35;97.64;101583.41;4983426;28;20219;-76
2022/09/11 01:08:36;;;;;;;51.87;35.33;;;;;;;16.34;97.88;101573.91;5002830;28;20227;-76
2022/09/11 01:11:24;;;;;;;49.57;36.57;;;;;;;16.34;97.45;101585.09;4989162;28;20708;-76
2022/09/11 01:14:25;;;;;;;50.33;35.40;;;;;;;16.36;97.37;101585.13;4987470;28;20200;-76
2022/09/11 01:16:53;;;;;;;52.23;35.33;;;;;;;16.35;97.44;101576.50;4979235;28;20203;-76
2022/09/11 01:19:37;;;;;;;50.93;36.67;;;;;;;16.33;97.34;101577.34;4984107;28;20632;-76
2022/09/11 01:22:05;;;;;;;48.83;34.70;;;;;;;16.33;97.38;101582.50;4985089;28;20246;-76
2022/09/11 01:25:08;;;;;;;46.73;33.73;;;;;;;16.33;97.82;101580.78;4980632;28;20279;-75
2022/09/11 01:27:43;;;;;;;48.10;33.87;;;;;;;16.31;97.88;101585.06;4987593;28;20298;-75
2022/09/11 01:30:13;;;;;;;44.67;33.27;;;;;;;16.33;97.24;101591.13;5013333;28;20216;-75
2022/09/11 01:32:58;;;;;;;49.20;34.27;;;;;;;16.36;97.30;101585.13;4980815;28;20257;-75
2022/09/11 01:35:34;;;;;;;46.37;32.90;;;;;;;16.38;97.37;101591.16;5009389;28;20195;-75
2022/09/11 01:38:16;;;;;;;44.37;32.93;;;;;;;16.39;97.13;101590.31;4989919;23;20281;-76
2022/09/11 01:41:00;;;;;;;46.87;33.20;;;;;;;16.40;97.16;101581.75;4984134;28;20211;-76
2022/09/11 01:43:29;;;;;;;43.93;32.70;;;;;;;16.39;97.09;101591.19;5000852;28;20562;-77
2022/09/11 01:46:01;;;;;;;43.97;33.57;;;;;;;16.40;97.43;101586.91;4979513;28;20213;-77
2022/09/11 01:48:35;;;;;;;43.37;31.67;;;;;;;16.40;97.40;101592.09;4957477;28;20209;-77
2022/09/11 01:51:03;;;;;;;40.97;31.57;;;;;;;16.40;96.55;101589.50;4965218;28;20193;-77
2022/09/11 01:53:36;;;;;;;40.80;31.07;;;;;;;16.41;96.48;101594.69;4966327;28;20189;-77
2022/09/11 01:56:09;;;;;;;41.23;31.27;;;;;;;16.42;96.79;101595.53;4960938;28;20211;-77
2022/09/11 01:58:40;;;;;;;40.73;31.17;;;;;;;16.41;96.63;101598.97;4961689;28;20593;-77
2022/09/11 02:01:17;;;;;;;41.20;31.67;;;;;;;16.39;96.86;101604.09;4967413;28;20196;-76
2022/09/11 02:03:56;;;;;;;41.67;31.77;;;;;;;16.42;96.67;101599.00;4966055;28;20335;-77
2022/09/11 02:06:35;;;;;;;43.93;31.50;;;;;;;16.42;96.76;101601.59;4963411;28;20216;-77
2022/09/11 02:09:06;;;;;;;45.93;31.97;;;;;;;16.42;96.53;101604.16;4982221;28;20187;-78
2022/09/11 02:11:39;;;;;;;42.17;31.77;;;;;;;16.42;96.14;101604.16;4978093;28;20192;-76
2022/09/11 02:14:19;;;;;;;45.40;33.00;;;;;;;16.43;96.93;101603.31;4982568;28;20196;-77
2022/09/11 02:16:59;;;;;;;45.10;32.33;;;;;;;16.41;97.05;101607.63;4959005;28;20208;-76
2022/09/11 02:19:28;;;;;;;44.53;32.97;;;;;;;16.44;96.60;101604.19;4981251;28;20197;-77
2022/09/11 02:21:56;;;;;;;46.10;32.57;;;;;;;16.41;97.03;101599.88;4958556;28;20603;-76
2022/09/11 02:24:24;;;;;;;43.40;32.60;;;;;;;16.42;96.64;101603.28;4958367;28;20193;-77
2022/09/11 02:27:06;;;;;;;47.30;34.20;;;;;;;16.42;97.03;101614.50;4970595;28;20748;-77
2022/09/11 02:29:32;;;;;;;43.33;32.37;;;;;;;16.40;96.72;101607.59;4974636;28;20204;-77
2022/09/11 02:32:00;;;;;;;48.87;33.33;;;;;;;16.38;96.64;101609.25;4970070;28;20621;-77
2022/09/11 02:34:31;;;;;;;47.93;34.30;;;;;;;16.37;96.80;101612.69;4965149;28;20185;-76
2022/09/11 02:36:59;;;;;;;47.23;33.07;;;;;;;16.36;96.96;101614.44;4965749;28;20200;-77
2022/09/11 02:39:46;;;;;;;49.43;34.77;;;;;;;16.34;97.21;101615.28;4969898;28;20275;-77
2022/09/11 02:42:50;;;;;;;52.00;34.23;;;;;;;16.33;97.53;101621.28;4970572;28;20238;-77
2022/09/11 02:45:28;;;;;;;55.17;34.87;;;;;;;16.28;97.32;101626.44;4970935;28;20192;-77
2022/09/11 02:48:23;;;;;;;53.57;34.97;;;;;;;16.27;97.37;101632.44;4974033;28;20244;-76
2022/09/11 02:51:06;;;;;;;54.23;34.53;;;;;;;16.23;97.97;101627.22;4971953;28;20335;-76
2022/09/11 02:53:43;;;;;;;58.70;35.10;;;;;;;16.20;98.27;101634.94;4973837;28;20188;-77
2022/09/11 02:56:27;;;;;;;55.87;33.57;;;;;;;16.19;97.97;101641.84;4964225;28;20265;-77
2022/09/11 02:58:55;;;;;;;56.17;34.20;;;;;;;16.16;97.79;101641.81;4972192;28;20213;-77
2022/09/11 03:01:23;;;;;;;55.70;34.40;;;;;;;16.19;97.62;101643.56;4973374;28;20728;-78
2022/09/11 03:03:48;;;;;;;56.47;34.83;;;;;;;16.16;97.99;101646.13;4970808;28;20204;-77
2022/09/11 03:06:21;;;;;;;52.30;32.20;;;;;;;16.11;98.18;101646.06;4975366;28;20303;-77
2022/09/11 03:08:46;;;;;;;52.13;33.43;;;;;;;16.11;98.45;101646.06;4972461;28;20260;-77
2022/09/11 03:11:14;;;;;;;51.90;32.27;;;;;;;16.11;98.42;101651.22;4974291;28;20183;-77
2022/09/11 03:13:41;;;;;;;47.57;30.57;;;;;;;16.09;98.29;101650.38;4969886;28;20223;-77
2022/09/11 03:16:07;;;;;;;51.60;31.30;;;;;;;16.08;98.73;101652.94;4976962;28;20239;-77
2022/09/11 03:18:33;;;;;;;49.10;30.70;;;;;;;16.08;98.46;101655.53;4966891;28;20224;-77
2022/09/11 03:20:59;;;;;;;53.07;32.77;;;;;;;16.06;98.72;101663.25;4979111;28;20241;-77
2022/09/11 03:23:26;;;;;;;51.63;31.03;;;;;;;16.05;98.85;101663.22;4962745;28;20190;-76
2022/09/11 03:25:53;;;;;;;52.73;31.30;;;;;;;16.05;99.17;101668.41;4976471;28;20209;-76
2022/09/11 03:28:21;;;;;;;52.60;30.63;;;;;;;16.04;99.10;101677.88;4982875;28;20206;-76
2022/09/11 03:30:48;;;;;;;49.37;28.17;;;;;;;16.02;98.92;101668.38;4973504;28;20196;-77
2022/09/11 03:33:16;;;;;;;45.90;27.10;;;;;;;15.99;98.98;101665.75;4980846;28;20211;-77
2022/09/11 03:35:44;;;;;;;46.53;26.57;;;;;;;15.95;99.30;101664.88;4966905;28;20216;-77
2022/09/11 03:38:11;;;;;;;45.50;27.53;;;;;;;15.98;98.89;101664.03;4979502;28;20931;-76
2022/09/11 03:40:40;;;;;;;48.90;27.80;;;;;;;15.97;98.71;101662.31;4970597;28;20275;-77
2022/09/11 03:43:05;;;;;;;50.47;29.03;;;;;;;15.90;99.11;101670.81;4977960;28;20193;-76
2022/09/11 03:45:31;;;;;;;50.13;27.90;;;;;;;15.86;99.23;101669.94;4975372;28;20215;-76
2022/09/11 03:47:56;;;;;;;49.23;27.50;;;;;;;15.88;99.21;101668.22;4977928;28;20775;-76
2022/09/11 03:50:22;;;;;;;49.97;26.73;;;;;;;15.87;99.15;101666.50;4977002;28;20666;-76
2022/09/11 03:52:48;;;;;;;48.30;26.33;;;;;;;15.88;99.24;101668.22;4975501;28;20193;-76
2022/09/11 03:55:15;;;;;;;54.83;28.37;;;;;;;15.88;99.57;101675.13;4961378;28;20549;-77
2022/09/11 03:57:41;;;;;;;51.60;27.10;;;;;;;15.88;99.33;101670.78;4976935;28;20192;-77
2022/09/11 04:00:07;;;;;;;47.77;27.03;;;;;;;15.84;99.44;101668.19;4964959;28;20184;-77
2022/09/11 04:02:45;;;;;;;41.13;24.03;;;;;;;15.72;99.67;101666.31;4970951;28;20276;-77
2022/09/11 04:05:11;;;;;;;44.63;26.17;;;;;;;15.76;99.56;101665.50;4982926;28;20684;-77
2022/09/11 04:07:38;;;;;;;43.90;25.77;;;;;;;15.77;99.59;101668.94;4974516;28;20275;-77
2022/09/11 04:10:05;;;;;;;47.53;25.57;;;;;;;15.78;99.82;101657.75;4981054;28;20199;-77
2022/09/11 04:12:32;;;;;;;47.40;26.23;;;;;;;15.79;99.72;101662.09;4971904;28;20231;-77
2022/09/11 04:14:59;;;;;;;43.20;24.63;;;;;;;15.75;99.49;101656.00;4978979;28;20270;-76
2022/09/11 04:17:24;;;;;;;45.60;23.80;;;;;;;15.75;99.66;101658.59;4976499;28;20180;-77
2022/09/11 04:19:50;;;;;;;44.73;25.00;;;;;;;15.75;100.00;101657.75;4961847;28;20211;-77
2022/09/11 04:22:16;;;;;;;43.57;23.57;;;;;;;15.71;100.00;101668.88;4976932;28;20180;-77
2022/09/11 04:24:41;;;;;;;42.53;24.70;;;;;;;15.70;100.00;101670.59;4976910;28;20216;-77
2022/09/11 04:27:07;;;;;;;44.80;25.50;;;;;;;15.71;100.00;101669.72;4979902;28;20970;-77
2022/09/11 04:29:33;;;;;;;39.60;23.63;;;;;;;15.69;99.96;101674.03;4976575;28;20286;-77
2022/09/11 04:31:59;;;;;;;39.57;23.93;;;;;;;15.72;100.00;101675.78;4975985;28;20188;-77
2022/09/11 04:34:28;;;;;;;42.10;24.57;;;;;;;15.74;100.00;101679.25;4975523;28;20661;-77
2022/09/11 04:36:55;;;;;;;42.10;24.67;;;;;;;15.75;100.00;101673.25;4984391;28;20224;-77
2022/09/11 04:39:21;;;;;;;37.47;23.27;;;;;;;15.73;100.00;101677.50;4974635;28;20238;-77
2022/09/11 04:41:47;;;;;;;36.17;23.43;;;;;;;15.75;100.00;101680.97;4978903;28;20195;-77
2022/09/11 04:44:14;;;;;;;41.73;24.00;;;;;;;15.72;100.00;101681.81;4974046;28;20188;-77
2022/09/11 04:46:41;;;;;;;37.43;22.80;;;;;;;15.73;100.00;101690.41;4972256;28;20236;-77
2022/09/11 04:49:08;;;;;;;48.10;26.07;;;;;;;15.69;100.00;101680.88;4975397;28;20258;-77
2022/09/11 04:51:35;;;;;;;42.00;24.30;;;;;;;15.69;100.00;101691.22;4980019;28;20190;-77
2022/09/11 04:54:01;;;;;;;44.97;23.70;;;;;;;15.69;100.00;101689.50;4967612;28;20269;-77
2022/09/11 04:56:38;;;;;;;40.43;24.03;;;;;;;15.71;100.00;101698.13;4962035;28;20275;-77
2022/09/11 04:59:12;;;;;;;37.20;23.77;;;;;;;15.68;100.00;101695.53;4961719;28;20650;-76
2022/09/11 05:01:39;;;;;;;38.20;22.77;;;;;;;15.69;100.00;101696.38;4971448;28;20189;-77
2022/09/11 05:04:05;;;;;;;37.77;22.47;;;;;;;15.69;100.00;101702.44;4963840;28;20194;-77
2022/09/11 05:06:31;;;;;;;36.63;23.00;;;;;;;15.68;100.00;101695.53;4975077;28;20215;-77
2022/09/11 05:09:05;;;;;;;41.77;23.60;;;;;;;15.73;100.00;101705.91;4975088;28;20673;-77
2022/09/11 05:11:33;;;;;;;43.03;23.73;;;;;;;15.75;100.00;101699.91;4972541;28;20786;-76
2022/09/11 05:13:59;;;;;;;46.30;24.40;;;;;;;15.73;100.00;101701.63;4966537;28;20197;-77
2022/09/11 05:16:29;;;;;;;46.40;24.13;;;;;;;15.73;100.00;101700.75;4977138;28;20206;-77
2022/09/11 05:18:56;;;;;;;40.73;23.33;;;;;;;15.75;100.00;101709.41;4979330;28;20216;-76
2022/09/11 05:21:24;;;;;;;39.27;22.53;;;;;;;15.72;100.00;101706.75;4975092;28;20196;-76
2022/09/11 05:23:52;;;;;;;39.60;21.70;;;;;;;15.71;100.00;101713.63;4965917;28;20204;-76
2022/09/11 05:26:26;;;;;;;41.00;23.00;;;;;;;15.74;100.00;101711.09;4976435;28;20215;-76
2022/09/11 05:28:58;;;;;;;40.17;22.07;;;;;;;15.73;100.00;101721.41;4987656;28;20242;-76
2022/09/11 05:31:24;;;;;;;41.33;22.63;;;;;;;15.72;100.00;101717.97;4977177;28;20192;-76
2022/09/11 05:33:52;;;;;;;38.47;22.43;;;;;;;15.74;100.00;101729.19;4971633;28;20203;-74
2022/09/11 05:36:17;;;;;;;35.03;19.80;;;;;;;15.70;100.00;101732.56;4965478;28;20216;-76
2022/09/11 05:38:43;;;;;;;35.60;19.40;;;;;;;15.68;100.00;101726.53;4968551;28;20234;-76
2022/09/11 05:41:11;;;;;;;34.27;20.30;;;;;;;15.66;100.00;101729.94;4994023;28;20188;-75
2022/09/11 05:43:39;;;;;;;37.27;20.20;;;;;;;15.65;100.00;101733.38;4967757;28;20199;-76
2022/09/11 05:46:06;;;;;;;41.23;21.70;;;;;;;15.63;100.00;101732.47;4980297;28;20250;-76
2022/09/11 05:48:35;;;;;;;36.83;21.27;;;;;;;15.62;100.00;101743.66;4974235;28;20219;-76
2022/09/11 05:51:08;;;;;;;35.70;20.93;;;;;;;15.60;100.00;101747.91;4971953;28;20279;-77
2022/09/11 05:53:34;;;;;;;34.77;19.33;;;;;;;15.62;100.00;101760.03;4966855;28;20193;-77
2022/09/11 05:56:09;;;;;;;29.63;17.63;;;;;;;15.61;100.00;101760.84;4972614;28;20200;-77
2022/09/11 05:58:36;;;;;;;25.67;16.07;;;;;;;15.60;100.00;101756.53;4974488;28;20180;-77
2022/09/11 06:01:07;;;;;;;24.80;15.37;;;;;;;15.62;99.79;101765.19;4975169;28;20187;-76
2022/09/11 06:03:35;;;;;;;24.20;14.70;;;;;;;15.63;100.00;101764.34;4962937;28;20185;-77
2022/09/11 06:06:06;;;;;;;25.87;16.43;;;;;;;15.62;99.79;101767.78;4972258;28;20704;-77
2022/09/11 06:08:35;;;;;;;27.43;16.50;;;;;;;15.60;100.00;101769.44;4969135;28;20205;-77
2022/09/11 06:11:05;;;;;;;28.67;16.93;;;;;;;15.64;100.00;101768.66;4972857;28;20184;-77
2022/09/11 06:13:35;;;;;;;30.20;17.50;;;;;;;15.63;100.00;101768.63;4967550;28;20184;-76
2022/09/11 06:16:04;;;;;;;32.13;18.67;;;;;;;15.63;100.00;101772.09;4956777;28;20818;-77
2022/09/11 06:18:31;;;;;;;29.27;17.50;;;;;;;15.64;100.00;101773.81;4970792;28;20185;-77
2022/09/11 06:21:02;;;;;;;29.43;17.23;;;;;;;15.64;100.00;101784.13;4963287;28;20197;-76
2022/09/11 06:23:40;;;;;;;32.17;18.37;;;;;;;15.65;100.00;101783.28;4978595;28;20184;-77
2022/09/11 06:26:11;;;;;;;32.67;17.83;;;;;;;15.63;100.00;101784.13;4952913;28;20243;-77
2022/09/11 06:28:39;;;;;;;29.07;17.47;;;;;;;15.61;100.00;101785.81;4960084;28;20221;-77
2022/09/11 06:31:07;;;;;;;28.23;16.10;;;;;;;15.57;100.00;101791.78;4956907;28;20207;-77
2022/09/11 06:33:35;;;;;;;22.50;14.63;;;;;;;15.65;100.00;101798.78;4952131;28;20189;-77
2022/09/11 06:36:04;;;;;;;24.60;14.50;;;;;;;15.61;99.60;101797.00;4960464;28;20216;-77
2022/09/11 06:38:30;;;;;;;23.70;14.30;;;;;;;15.66;99.51;101799.66;4952936;28;20227;-78
2022/09/11 06:40:58;;;;;;;21.53;12.80;;;;;;;15.72;99.14;101794.56;4955426;28;20188;-78
2022/09/11 06:43:24;;;;;;;23.30;14.33;;;;;;;15.75;98.94;101792.88;4962604;28;20192;-78
2022/09/11 06:45:50;;;;;;;22.93;13.93;;;;;;;15.77;98.96;101793.78;4973074;28;20289;-77
2022/09/11 06:48:17;;;;;;;21.67;13.10;;;;;;;15.84;98.67;101795.59;4975008;28;20234;-77
2022/09/11 06:50:44;;;;;;;24.17;15.07;;;;;;;15.96;98.50;101792.31;4976102;28;20196;-77
2022/09/11 06:53:11;;;;;;;23.53;13.90;;;;;;;16.05;98.51;101792.41;4964886;28;20180;-77
2022/09/11 06:55:45;;;;;;;21.53;13.93;;;;;;;16.10;97.87;101793.34;4974926;28;20315;-77
2022/09/11 06:58:14;;;;;;;22.60;13.33;;;;;;;16.18;97.34;101797.78;4971841;28;20176;-78
2022/09/11 07:00:40;;;;;;;24.03;14.33;;;;;;;16.21;97.34;101796.94;4969907;28;20209;-77
2022/09/11 07:03:06;;;;;;;22.23;13.97;;;;;;;16.20;97.15;101796.06;4952923;28;20228;-77
2022/09/11 07:05:32;;;;;;;21.97;14.00;;;;;;;16.21;96.99;101800.38;4954389;28;20241;-78
2022/09/11 07:07:59;;;;;;;23.13;13.53;;;;;;;16.23;97.02;101798.69;4972288;28;20208;-77
2022/09/11 07:10:29;;;;;;;20.93;13.50;;;;;;;16.25;96.96;101801.31;4959711;28;20729;-77
2022/09/11 07:12:57;;;;;;;21.57;13.63;;;;;;;16.30;97.08;101803.06;4956721;28;20195;-78
2022/09/11 07:15:23;;;;;;;23.23;13.97;;;;;;;16.33;96.24;101803.13;4972699;28;20609;-78
2022/09/11 07:17:48;;;;;;;19.73;12.70;;;;;;;16.37;96.18;101804.00;4975006;28;20204;-77
2022/09/11 07:20:15;;;;;;;22.00;14.17;;;;;;;16.46;95.53;101802.44;4980315;28;20593;-77
2022/09/11 07:22:42;;;;;;;19.00;13.47;;;;;;;16.58;95.06;101793.94;4971831;28;20185;-78
2022/09/11 07:25:08;;;;;;;22.97;14.47;;;;;;;16.80;94.36;101801.91;4960688;28;20203;-77
2022/09/11 07:27:37;;;;;;;20.80;13.00;;;;;;;17.05;93.45;101800.44;4969547;28;20215;-77
2022/09/11 07:30:03;;;;;;;18.77;12.97;;;;;;;17.28;92.59;101799.78;4979971;28;20192;-77
2022/09/11 07:32:32;;;;;;;18.23;12.97;;;;;;;17.47;91.21;101798.19;4979735;28;20207;-77
2022/09/11 07:34:57;;;;;;;17.57;13.03;;;;;;;17.62;90.38;101800.88;4969863;28;20196;-78
2022/09/11 07:37:23;;;;;;;18.80;13.30;;;;;;;17.52;90.20;101804.25;4952066;28;20257;-78
2022/09/11 07:39:49;;;;;;;19.13;14.33;;;;;;;17.43;91.34;101794.72;4961274;28;20188;-78
2022/09/11 07:42:18;;;;;;;16.90;13.23;;;;;;;17.38;90.83;101804.16;4973698;28;20740;-77
2022/09/11 07:44:44;;;;;;;19.10;12.47;;;;;;;17.38;90.96;101801.56;4964574;28;20807;-76
2022/09/11 07:47:10;;;;;;;18.20;13.40;;;;;;;17.36;91.80;101807.59;4964117;28;20768;-77
2022/09/11 07:49:40;;;;;;;19.27;13.63;;;;;;;17.37;92.01;101804.13;4967304;28;20196;-77
2022/09/11 07:52:06;;;;;;;14.20;11.53;;;;;;;17.32;91.74;101804.09;4965230;28;20339;-77
2022/09/11 07:54:38;;;;;;;15.50;12.57;;;;;;;17.30;91.51;101815.28;4977489;28;20735;-77
2022/09/11 07:57:04;;;;;;;14.60;12.17;;;;;;;17.30;92.48;101803.22;4958720;28;20227;-76
2022/09/11 07:59:30;;;;;;;16.87;13.10;;;;;;;17.24;92.20;101810.94;4977653;28;20643;-77
2022/09/11 08:01:56;;;;;;;16.17;12.50;;;;;;;17.31;92.35;101817.03;4975073;28;20204;-77
2022/09/11 08:04:23;;;;;;;17.60;13.00;;;;;;;17.33;91.86;101821.38;4976601;28;20242;-77
2022/09/11 08:06:48;;;;;;;16.43;12.77;;;;;;;17.35;92.14;101831.72;4956739;28;20712;-77
2022/09/11 08:09:19;;;;;;;14.27;11.93;;;;;;;17.33;91.46;101825.69;4974428;28;20193;-77
2022/09/11 08:11:54;;;;;;;14.33;11.70;;;;;;;17.33;91.62;101828.25;4970642;28;20183;-77
2022/09/11 08:14:21;;;;;;;14.50;11.47;;;;;;;17.35;91.03;101837.78;4967574;28;20188;-77
2022/09/11 08:16:48;;;;;;;12.63;10.13;;;;;;;17.41;90.49;101832.66;4978972;28;20294;-76
2022/09/11 08:19:17;;;;;;;10.30;8.90;;;;;;;17.49;89.91;101838.78;4957844;28;20637;-77
2022/09/11 08:21:43;;;;;;;11.47;8.37;;;;;;;17.62;89.62;101838.03;4977689;28;20235;-78
2022/09/11 08:24:15;;;;;;;9.60;7.40;;;;;;;17.96;88.43;101839.94;4954475;28;20280;-77
2022/09/11 08:26:42;;;;;;;9.57;7.67;;;;;;;18.26;87.10;101832.31;4959079;28;20216;-77
2022/09/11 08:29:08;;;;;;;8.77;7.73;;;;;;;18.64;85.90;101840.25;4972912;28;20251;-76
2022/09/11 08:31:34;;;;;;;6.80;6.10;;;;;;;18.66;83.61;101838.53;4960919;28;20188;-77
2022/09/11 08:34:02;;;;;;;4.60;3.93;;;;;;;18.52;83.11;101840.22;4974896;28;20660;-77
2022/09/11 08:36:28;;;;;;;5.00;3.50;;;;;;;18.42;82.82;101836.72;4975513;28;20291;-76
2022/09/11 08:38:55;;;;;;;3.47;3.17;;;;;;;18.41;82.42;101836.72;4977177;28;20195;-77
2022/09/11 08:41:22;;;;;;;4.17;3.77;;;;;;;18.50;82.31;101839.34;4973057;28;20250;-77
2022/09/11 08:44:21;;;;;;;3.90;3.50;;;;;;;19.16;80.04;101834.28;4979633;28;20187;-77
2022/09/11 08:46:52;;;;;;;3.67;3.30;;;;;;;19.77;78.19;101841.19;4974054;28;20321;-77
2022/09/11 08:49:24;;;;;;;3.63;3.00;;;;;;;19.78;77.23;101840.31;4973971;28;20211;-77
2022/09/11 08:51:58;;;;;;;4.20;2.67;;;;;;;19.90;75.75;101835.94;4965513;28;20270;-76
2022/09/11 08:54:37;;;;;;;3.43;3.07;;;;;;;20.66;74.13;101828.72;4976536;28;20279;-78
2022/09/11 08:57:17;;;;;;;3.77;3.00;;;;;;;21.24;72.18;101828.31;4972674;28;20217;-77
2022/09/11 08:59:51;;;;;;;2.70;2.50;;;;;;;21.71;69.41;101838.34;4973923;28;20196;-77
2022/09/11 09:02:26;;;;;;;4.30;2.40;;;;;;;21.70;69.95;101832.25;4966851;28;20188;-78
2022/09/11 09:05:14;;;;;;;3.50;2.53;;;;;;;21.76;69.28;101841.78;4969633;28;20195;-78
2022/09/11 09:08:17;;;;;;;2.73;2.30;;;;;;;21.18;69.35;101848.34;4990377;28;20213;-77
2022/09/11 09:11:06;;;;;;;2.50;2.27;;;;;;;20.82;70.96;101843.38;4963877;28;20713;-77
2022/09/11 09:13:44;;;;;;;3.70;2.67;;;;;;;20.53;71.93;101855.69;4979787;28;20212;-77
2022/09/11 09:16:35;;;;;;;3.13;2.50;;;;;;;20.57;71.66;101854.78;4954444;28;20614;-77
2022/09/11 09:19:10;;;;;;;3.13;2.83;;;;;;;20.54;71.80;101852.22;4969790;28;20661;-76
2022/09/11 09:21:58;;;;;;;3.70;2.83;;;;;;;21.07;70.14;101847.56;4965228;28;20271;-77
2022/09/11 09:24:28;;;;;;;3.83;2.22;;;;;;;24.80;59.29;101825.41;4961134;28;20213;-78
2022/09/11 09:26:55;;;;;;;3.55;2.58;;;;;;;28.10;49.09;101812.75;4964918;28;20213;-78
2022/09/11 09:29:36;;;;;;;2.15;1.92;;;;;;;30.42;42.74;101808.22;4960833;28;20259;-76
2022/09/11 09:32:19;;;;;;;2.83;2.45;;;;;;;32.82;38.08;101806.19;4960324;28;20740;-78
2022/09/11 09:34:51;;;;;;;2.72;2.40;;;;;;;28.69;44.21;101821.03;4975454;28;20204;-76
2022/09/11 09:37:20;;;;;;;2.63;2.25;;;;;;;25.37;52.99;101831.88;4965489;28;20216;-78
2022/09/11 09:39:47;;;;;;;3.08;2.47;;;;;;;29.57;43.01;101812.06;4963157;28;20294;-77
2022/09/11 09:42:27;;;;;;;2.55;2.15;;;;;;;31.08;39.72;101805.81;4965823;28;20203;-77
2022/09/11 09:44:56;;;;;;;2.40;2.20;;;;;;;33.29;35.55;101809.56;4966254;28;20220;-76
2022/09/11 09:47:22;;;;;;;3.70;2.13;;;;;;;32.40;37.23;101811.19;4964357;28;20234;-77
2022/09/11 09:49:48;;;;;;;3.22;2.10;;;;;;;31.42;40.51;101813.81;4960777;28;20547;-77
2022/09/11 09:52:30;;;;;;;2.42;2.10;;;;;;;35.25;33.81;101802.25;4964399;28;20188;-77
2022/09/11 09:54:59;;;;;;;2.60;2.40;;;;;;;32.92;36.05;101815.31;4959094;28;20201;-78
2022/09/11 09:57:29;;;;;;;2.67;2.47;;;;;;;36.29;30.56;101800.25;4968598;28;20218;-78
2022/09/11 10:00:14;;;;;;;2.63;2.20;;;;;;;37.55;28.93;101801.34;4959709;28;20202;-77
2022/09/11 10:02:48;;;;;;;1.92;1.80;;;;;;;36.74;28.96;101804.94;4980314;28;20184;-77
2022/09/11 10:05:15;;;;;;;2.33;2.13;;;;;;;37.23;29.05;101800.28;4968828;28;20541;-77
2022/09/11 10:07:54;;;;;;;2.20;2.00;;;;;;;38.81;26.20;101798.25;4962707;28;20227;-77
2022/09/11 10:10:33;;;;;;;2.00;1.90;;;;;;;38.98;27.43;101790.50;4968779;28;20182;-77
2022/09/11 10:13:27;;;;;;;2.00;1.90;;;;;;;40.10;25.12;101798.53;4971569;28;20199;-76
2022/09/11 10:15:58;;;;;;;1.80;1.70;;;;;;;35.31;30.76;101807.19;4968674;28;20250;-76
2022/09/11 10:18:31;;;;;;;2.25;1.90;;;;;;;36.94;28.61;101805.16;4974966;28;20191;-77
2022/09/11 10:21:12;;;;;;;2.75;1.90;;;;;;;39.08;25.89;101798.63;4968704;28;20662;-77
2022/09/11 10:23:49;;;;;;;1.98;1.77;;;;;;;39.34;25.27;101808.88;4977490;28;20279;-77
2022/09/11 10:26:22;;;;;;;2.00;1.80;;;;;;;40.02;24.48;101803.75;4972888;28;20213;-77
2022/09/11 10:28:48;;;;;;;1.73;1.60;;;;;;;39.25;24.98;101806.94;4976399;28;20242;-78
2022/09/11 10:31:17;;;;;;;1.65;1.55;;;;;;;39.74;25.32;101801.81;4961149;28;20184;-77
2022/09/11 10:33:55;;;;;;;1.88;1.50;;;;;;;39.42;24.59;101808.22;4978979;28;20204;-76
2022/09/11 10:36:23;;;;;;;1.73;1.38;;;;;;;38.85;24.93;101813.91;4994288;28;20691;-77
2022/09/11 10:38:49;;;;;;;1.73;1.40;;;;;;;38.31;27.08;101805.06;4976553;28;20202;-77
2022/09/11 10:41:26;;;;;;;2.88;1.50;;;;;;;35.11;30.68;101812.13;4978516;28;20188;-77
2022/09/11 10:44:01;;;;;;;1.92;1.30;;;;;;;31.26;35.85;101819.97;4963892;28;20299;-79
2022/09/11 10:46:31;;;;;;;1.40;1.30;;;;;;;29.32;40.03;101827.22;4984547;28;20215;-78
2022/09/11 10:49:05;;;;;;;1.50;1.40;;;;;;;29.23;40.47;101822.31;4986226;28;20206;-78
2022/09/11 10:51:34;;;;;;;1.50;1.40;;;;;;;29.07;40.42;101826.53;4981382;28;20219;-78
2022/09/11 10:54:15;;;;;;;1.92;1.30;;;;;;;27.71;42.56;101829.97;4985236;28;20196;-78
2022/09/11 10:57:04;;;;;;;3.17;1.83;;;;;;;28.39;42.83;101832.72;4979160;28;20623;-78
2022/09/11 10:59:41;;;;;;;1.88;1.58;;;;;;;28.84;42.69;101830.97;4969727;28;20196;-78
2022/09/11 11:02:33;;;;;;;1.50;1.40;;;;;;;27.43;44.05;101837.09;4980247;28;20218;-78
2022/09/11 11:05:26;;;;;;;2.00;1.63;;;;;;;26.32;45.34;101839.75;4997311;28;20247;-78
2022/09/11 11:07:52;;;;;;;2.03;1.83;;;;;;;27.38;44.11;101827.63;4985371;28;20225;-77
2022/09/11 11:10:36;;;;;;;1.80;1.40;;;;;;;27.13;44.06;101839.88;4979496;28;20204;-78
2022/09/11 11:13:14;;;;;;;2.13;1.70;;;;;;;26.54;46.28;101846.09;4976490;28;20184;-78
2022/09/11 11:16:01;;;;;;;1.80;1.70;;;;;;;25.98;47.09;101847.75;4985199;28;20241;-78
2022/09/11 11:18:37;;;;;;;2.97;2.20;;;;;;;25.22;49.18;101854.97;4978944;28;20188;-78
2022/09/11 11:21:06;;;;;;;2.55;1.70;;;;;;;25.71;49.02;101848.47;4972841;28;20196;-77
2022/09/11 11:23:41;;;;;;;2.35;1.80;;;;;;;26.29;47.70;101839.88;4975024;28;20239;-79
2022/09/11 11:26:16;;;;;;;1.40;1.30;;;;;;;27.03;46.61;101831.41;4976691;28;20214;-80
2022/09/11 11:29:10;;;;;;;2.40;1.50;;;;;;;26.29;47.72;101840.72;4972039;28;20221;-79
2022/09/11 11:32:02;;;;;;;2.00;1.85;;;;;;;25.92;48.24;101842.66;4979366;28;20192;-79